createdAt,value
2024-01-20T00:02:02.013Z,18.13
2024-01-20T00:04:36.606Z,16.30
2024-01-20T00:07:07.096Z,16.43
2024-01-20T00:09:42.858Z,15.20
2024-01-20T00:12:19.016Z,15.23
2024-01-20T00:14:48.373Z,15.80
2024-01-20T00:17:23.778Z,16.23
2024-01-20T00:19:56.288Z,15.93
2024-01-20T00:22:27.403Z,15.77
2024-01-20T00:24:57.358Z,15.83
2024-01-20T00:27:26.752Z,15.93
2024-01-20T00:29:55.810Z,15.80
2024-01-20T00:32:24.801Z,16.00
2024-01-20T00:35:04.046Z,17.97
2024-01-20T00:37:37.668Z,16.20
2024-01-20T00:40:07.856Z,16.27
2024-01-20T00:42:37.329Z,17.63
2024-01-20T00:45:06.675Z,15.63
2024-01-20T00:47:36.871Z,16.70
2024-01-20T00:50:11.769Z,17.07
2024-01-20T00:52:42.022Z,17.33
2024-01-20T00:55:11.812Z,18.00
2024-01-20T00:57:40.463Z,17.30
2024-01-20T01:00:10.885Z,17.63
2024-01-20T01:02:40.094Z,16.67
2024-01-20T01:05:09.707Z,16.20
2024-01-20T01:07:39.095Z,16.83
2024-01-20T01:10:10.140Z,16.20
2024-01-20T01:12:38.868Z,17.03
2024-01-20T01:15:08.315Z,17.03
2024-01-20T01:17:37.240Z,17.43
2024-01-20T01:20:06.895Z,17.80
2024-01-20T01:22:35.650Z,17.13
2024-01-20T01:25:05.308Z,17.60
2024-01-20T01:27:35.397Z,17.07
2024-01-20T01:30:04.286Z,16.77
2024-01-20T01:32:33.048Z,18.00
2024-01-20T01:35:04.760Z,17.53
2024-01-20T01:37:33.718Z,17.93
2024-01-20T01:40:02.282Z,17.73
2024-01-20T01:42:30.962Z,18.40
2024-01-20T01:45:01.144Z,18.97
2024-01-20T01:47:30.157Z,19.97
2024-01-20T01:49:59.133Z,18.63
2024-01-20T01:52:29.040Z,18.57
2024-01-20T01:54:59.083Z,18.90
2024-01-20T01:57:28.440Z,18.20
2024-01-20T01:59:57.859Z,18.73
2024-01-20T02:02:27.973Z,19.23
2024-01-20T02:04:56.750Z,18.53
2024-01-20T02:07:25.412Z,19.13
2024-01-20T02:09:54.227Z,19.17
2024-01-20T02:12:23.609Z,20.07
2024-01-20T02:14:52.645Z,19.03
2024-01-20T02:17:21.608Z,19.00
2024-01-20T02:19:51.844Z,19.47
2024-01-20T02:22:22.518Z,18.73
2024-01-20T02:24:52.166Z,18.63
2024-01-20T02:27:21.729Z,17.17
2024-01-20T02:29:50.514Z,17.80
2024-01-20T02:32:19.503Z,17.17
2024-01-20T02:34:48.198Z,17.23
2024-01-20T02:37:17.047Z,17.93
2024-01-20T02:39:47.119Z,17.47
2024-01-20T02:42:16.099Z,18.13
2024-01-20T02:44:44.894Z,16.60
2024-01-20T02:47:13.494Z,17.20
2024-01-20T02:49:42.561Z,18.23
2024-01-20T02:52:11.345Z,18.60
2024-01-20T02:54:40.145Z,17.03
2024-01-20T02:57:10.519Z,17.40
2024-01-20T02:59:39.181Z,17.17
2024-01-20T03:02:08.148Z,16.63
2024-01-20T03:04:36.904Z,17.30
2024-01-20T03:07:05.783Z,17.13
2024-01-20T03:09:34.773Z,15.53
2024-01-20T03:12:03.737Z,15.90
2024-01-20T03:14:33.888Z,15.47
2024-01-20T03:17:02.638Z,15.33
2024-01-20T03:19:31.366Z,15.33
2024-01-20T03:22:00.211Z,15.63
2024-01-20T03:24:28.918Z,16.07
2024-01-20T03:26:59.900Z,15.43
2024-01-20T03:29:28.782Z,15.67
2024-01-20T03:31:59.099Z,16.37
2024-01-20T03:34:28.004Z,14.90
2024-01-20T03:36:56.697Z,14.63
2024-01-20T03:39:25.394Z,14.63
2024-01-20T03:41:54.060Z,13.67
2024-01-20T03:44:23.116Z,13.57
2024-01-20T03:46:51.803Z,14.33
2024-01-20T03:49:21.991Z,14.33
2024-01-20T03:51:50.771Z,15.00
2024-01-20T03:54:19.431Z,13.60
2024-01-20T03:56:48.078Z,14.53
2024-01-20T03:59:16.779Z,14.33
2024-01-20T04:01:45.490Z,13.77
2024-01-20T04:04:14.162Z,12.93
2024-01-20T04:06:44.332Z,13.67
2024-01-20T04:09:13.419Z,12.97
2024-01-20T04:11:42.103Z,12.93
2024-01-20T04:14:10.802Z,13.53
2024-01-20T04:16:39.628Z,12.77
2024-01-20T04:19:08.402Z,13.73
2024-01-20T04:21:37.132Z,13.97
2024-01-20T04:24:07.631Z,13.57
2024-01-20T04:26:36.340Z,13.07
2024-01-20T04:29:04.998Z,13.00
2024-01-20T04:31:33.627Z,13.67
2024-01-20T04:34:02.298Z,12.07
2024-01-20T04:36:31.090Z,13.43
2024-01-20T04:38:59.738Z,13.60
2024-01-20T04:41:30.209Z,13.33
2024-01-20T04:43:58.847Z,13.93
2024-01-20T04:46:27.542Z,14.90
2024-01-20T04:48:56.407Z,14.03
2024-01-20T04:51:25.769Z,13.30
2024-01-20T04:53:53.421Z,14.37
2024-01-20T04:56:24.012Z,13.60
2024-01-20T04:58:56.439Z,17.15
2024-01-20T05:01:25.206Z,14.77
2024-01-20T05:03:54.425Z,14.93
2024-01-20T05:06:23.700Z,14.20
2024-01-20T05:08:52.645Z,13.80
2024-01-20T05:11:21.276Z,13.03
2024-01-20T05:13:49.910Z,13.93
2024-01-20T05:16:20.539Z,13.60
2024-01-20T05:18:50.227Z,13.20
2024-01-20T05:21:19.261Z,13.23
2024-01-20T05:23:48.119Z,12.47
2024-01-20T05:26:17.019Z,13.07
2024-01-20T05:28:45.898Z,12.60
2024-01-20T05:31:15.348Z,13.53
2024-01-20T05:33:45.610Z,12.97
2024-01-20T05:36:15.047Z,12.03
2024-01-20T05:38:43.860Z,12.17
2024-01-20T05:41:14.195Z,12.50
2024-01-20T05:43:42.971Z,12.90
2024-01-20T05:46:11.809Z,12.57
2024-01-20T05:48:40.580Z,12.30
2024-01-20T05:51:10.762Z,12.77
2024-01-20T05:53:39.395Z,12.97
2024-01-20T05:56:08.485Z,13.70
2024-01-20T05:58:37.110Z,14.33
2024-01-20T06:01:06.114Z,13.60
2024-01-20T06:03:34.850Z,12.93
2024-01-20T06:06:03.558Z,12.10
2024-01-20T06:08:33.909Z,13.30
2024-01-20T06:11:02.508Z,13.90
2024-01-20T06:13:31.326Z,14.43
2024-01-20T06:19:45.866Z,13.57
2024-01-20T06:22:14.546Z,13.80
2024-01-20T06:24:44.820Z,14.13
2024-01-20T06:27:14.159Z,13.97
2024-01-20T06:29:49.648Z,14.10
2024-01-20T06:32:18.802Z,14.77
2024-01-20T06:34:47.644Z,14.67
2024-01-20T06:37:16.425Z,15.30
2024-01-20T06:39:46.573Z,14.03
2024-01-20T06:42:16.247Z,13.13
2024-01-20T06:48:35.526Z,14.37
2024-01-20T06:51:04.808Z,14.13
2024-01-20T06:53:33.973Z,13.63
2024-01-20T06:56:04.025Z,12.73
2024-01-20T06:58:32.641Z,13.17
2024-01-20T07:01:01.343Z,14.00
2024-01-20T07:03:30.245Z,14.30
2024-01-20T07:06:02.195Z,13.80
2024-01-20T07:08:31.552Z,14.83
2024-01-20T07:11:00.177Z,15.80
2024-01-20T07:13:30.230Z,13.73
2024-01-20T07:15:58.857Z,14.00
2024-01-20T07:18:27.546Z,13.60
2024-01-20T07:20:56.313Z,13.43
2024-01-20T07:23:24.997Z,12.77
2024-01-20T07:25:53.701Z,13.13
2024-01-20T07:28:22.540Z,12.37
2024-01-20T07:30:52.723Z,13.57
2024-01-20T07:33:21.663Z,13.23
2024-01-20T07:35:50.296Z,12.23
2024-01-20T07:38:18.951Z,13.07
2024-01-20T07:40:47.560Z,13.57
2024-01-20T07:43:16.791Z,13.43
2024-01-20T07:45:45.469Z,14.53
2024-01-20T07:48:16.328Z,13.53
2024-01-20T07:50:45.032Z,13.93
2024-01-20T07:53:13.653Z,14.23
2024-01-20T07:55:42.404Z,12.57
2024-01-20T07:58:10.991Z,13.10
2024-01-20T08:00:39.903Z,12.73
2024-01-20T08:03:08.660Z,13.23
2024-01-20T08:05:39.026Z,12.60
2024-01-20T08:08:08.139Z,12.50
2024-01-20T08:10:36.706Z,13.50
2024-01-20T08:13:05.863Z,12.60
2024-01-20T08:15:34.524Z,13.27
2024-01-20T08:18:03.357Z,14.37
2024-01-20T08:20:32.132Z,13.87
2024-01-20T08:23:02.850Z,13.73
2024-01-20T08:25:31.544Z,13.57
2024-01-20T08:28:00.192Z,13.90
2024-01-20T08:30:29.157Z,13.63
2024-01-20T08:33:01.492Z,14.83
2024-01-20T08:35:32.024Z,15.50
2024-01-20T08:38:02.119Z,13.13
2024-01-20T08:40:30.826Z,13.20
2024-01-20T08:43:00.246Z,13.13
2024-01-20T08:45:28.937Z,14.13
2024-01-20T08:47:58.023Z,14.37
2024-01-20T08:50:26.730Z,13.97
2024-01-20T08:52:55.605Z,14.00
2024-01-20T08:55:29.410Z,13.00
2024-01-20T08:57:59.904Z,14.80
2024-01-20T09:00:29.366Z,13.37
2024-01-20T09:03:09.119Z,13.70
2024-01-20T09:05:39.513Z,14.23
2024-01-20T09:08:13.062Z,14.70
2024-01-20T09:10:48.149Z,13.50
2024-01-20T09:13:41.529Z,15.00
2024-01-20T09:16:23.275Z,13.53
2024-01-20T09:18:53.793Z,13.07
2024-01-20T09:21:22.925Z,12.83
2024-01-20T09:23:52.201Z,13.03
2024-01-20T09:26:22.421Z,14.17
2024-01-20T09:28:51.244Z,12.23
2024-01-20T09:31:20.493Z,13.27
2024-01-20T09:33:49.224Z,14.73
2024-01-20T09:36:18.022Z,13.17
2024-01-20T09:38:48.577Z,12.83
2024-01-20T09:41:17.458Z,12.90
2024-01-20T09:43:47.725Z,13.50
2024-01-20T09:46:29.632Z,13.13
2024-01-20T09:49:01.488Z,13.53
2024-01-20T09:51:41.355Z,13.07
2024-01-20T09:54:13.336Z,14.00
2024-01-20T09:57:05.455Z,13.93
2024-01-20T09:59:36.925Z,13.63
2024-01-20T10:02:06.943Z,12.80
2024-01-20T10:04:41.126Z,13.70
2024-01-20T10:07:11.932Z,13.70
2024-01-20T10:09:51.876Z,14.30
2024-01-20T10:12:35.339Z,14.40
2024-01-20T10:15:06.545Z,15.57
2024-01-20T10:17:39.802Z,14.63
2024-01-20T10:20:09.112Z,13.93
2024-01-20T10:22:37.874Z,14.63
2024-01-20T10:25:17.119Z,13.87
2024-01-20T10:27:51.398Z,14.17
2024-01-20T10:30:23.625Z,14.60
2024-01-20T10:33:14.256Z,14.43
2024-01-20T10:35:47.661Z,15.18
2024-01-20T10:38:21.940Z,13.47
2024-01-20T10:40:55.255Z,13.93
2024-01-20T10:43:25.353Z,13.80
2024-01-20T10:46:28.620Z,13.23
2024-01-20T10:49:02.511Z,14.13
2024-01-20T10:52:06.496Z,14.60
2024-01-20T10:55:31.381Z,12.73
2024-01-20T10:58:21.407Z,13.30
2024-01-20T11:01:39.595Z,13.53
2024-01-20T11:05:27.752Z,13.53
2024-01-20T11:12:27.863Z,13.13
2024-01-20T11:15:00.800Z,14.23
2024-01-20T11:17:30.621Z,12.53
2024-01-20T11:20:09.348Z,13.13
2024-01-20T11:22:42.393Z,13.07
2024-01-20T11:25:15.956Z,14.37
2024-01-20T11:27:50.596Z,14.03
2024-01-20T11:31:03.602Z,13.10
2024-01-20T11:33:35.761Z,14.23
2024-01-20T11:36:05.079Z,12.77
2024-01-20T11:38:35.122Z,14.73
2024-01-20T11:41:04.777Z,14.07
2024-01-20T11:43:35.233Z,14.10
2024-01-20T11:46:04.502Z,13.97
2024-01-20T11:48:33.991Z,15.20
2024-01-20T11:51:03.043Z,14.23
2024-01-20T11:53:31.772Z,14.33
2024-01-20T11:56:01.813Z,14.23
2024-01-20T11:58:31.637Z,14.07
2024-01-20T12:01:03.224Z,13.23
2024-01-20T12:03:37.743Z,14.10
2024-01-20T12:06:10.672Z,13.93
2024-01-20T12:08:45.763Z,14.37
2024-01-20T12:11:20.414Z,15.23
2024-01-20T12:13:49.103Z,15.23
2024-01-20T12:16:48.827Z,14.50
2024-01-20T12:19:20.951Z,14.27
2024-01-20T12:21:50.002Z,15.10
2024-01-20T12:40:38.953Z,13.73
2024-01-20T12:43:43.002Z,14.43
2024-01-20T12:46:29.673Z,12.30
2024-01-20T12:49:09.291Z,13.50
2024-01-20T12:51:42.998Z,12.70
2024-01-20T12:57:57.005Z,14.52
2024-01-20T13:01:02.499Z,14.27
2024-01-20T13:03:36.460Z,13.17
2024-01-20T13:10:17.139Z,14.30
2024-01-20T13:12:48.712Z,13.17
2024-01-20T13:22:41.418Z,15.00
2024-01-20T13:31:01.782Z,14.87
2024-01-20T13:49:50.914Z,19.00
2024-01-20T13:52:20.794Z,20.48
2024-01-20T13:54:49.486Z,17.97
2024-01-20T13:57:20.214Z,18.67
2024-01-20T13:59:48.860Z,16.90
2024-01-20T14:02:21.812Z,18.00
2024-01-20T14:16:23.787Z,21.93
2024-01-20T14:19:15.114Z,28.57
2024-01-20T14:22:21.823Z,24.33
2024-01-20T14:24:58.094Z,24.93
2024-01-20T14:27:39.850Z,26.83
2024-01-20T14:30:12.904Z,23.63
2024-01-20T14:32:40.574Z,19.17
2024-01-20T14:35:11.103Z,20.27
2024-01-20T14:37:40.219Z,22.73
2024-01-20T14:40:10.325Z,21.37
2024-01-20T14:42:38.977Z,23.13
2024-01-20T14:45:08.433Z,23.53
2024-01-20T14:47:37.298Z,26.20
2024-01-20T14:50:08.427Z,24.03
2024-01-20T14:52:38.806Z,20.23
2024-01-20T14:55:08.464Z,21.03
2024-01-20T14:57:36.958Z,27.42
2024-01-20T15:00:10.382Z,22.53
2024-01-20T15:02:39.245Z,23.20
2024-01-20T15:05:12.261Z,21.50
2024-01-20T15:07:51.750Z,21.67
2024-01-20T15:10:31.760Z,23.90
2024-01-20T15:13:35.419Z,21.03
2024-01-20T15:16:09.156Z,23.47
2024-01-20T15:18:39.830Z,23.27
2024-01-20T15:21:11.051Z,22.33
2024-01-20T15:23:41.512Z,21.87
2024-01-20T15:26:10.358Z,23.53
2024-01-20T15:28:39.006Z,23.17
2024-01-20T15:31:09.712Z,25.33
2024-01-20T15:33:38.752Z,24.77
2024-01-20T15:36:08.140Z,26.97
2024-01-20T15:38:37.366Z,23.70
2024-01-20T15:41:09.134Z,24.67
2024-01-20T15:43:44.175Z,25.13
2024-01-20T15:46:13.224Z,23.70
2024-01-20T15:48:43.757Z,27.50
2024-01-20T15:51:13.266Z,25.47
2024-01-20T15:53:50.121Z,26.37
2024-01-20T15:56:32.359Z,28.57
2024-01-20T15:59:10.693Z,26.87
2024-01-20T16:02:50.895Z,26.23
2024-01-20T16:14:24.622Z,27.33
2024-01-20T16:39:16.581Z,24.50
2024-01-20T20:04:42.660Z,19.53
2024-01-20T20:07:14.269Z,18.90
2024-01-20T20:09:43.231Z,19.07
2024-01-20T20:12:12.278Z,20.73
2024-01-20T20:14:59.630Z,20.00
2024-01-20T20:17:28.475Z,20.73
2024-01-20T20:19:57.293Z,18.70
2024-01-20T20:22:28.376Z,17.97
2024-01-20T20:24:57.390Z,17.80
2024-01-20T20:27:26.029Z,17.70
2024-01-20T20:29:54.804Z,19.67
2024-01-20T20:32:23.540Z,18.70
2024-01-20T20:34:54.550Z,17.73
2024-01-20T20:37:23.466Z,18.03
2024-01-20T20:39:54.218Z,17.40
2024-01-20T20:42:23.495Z,18.90
2024-01-20T20:44:54.829Z,18.57
2024-01-20T20:47:27.395Z,17.50
2024-01-20T20:49:56.066Z,16.97
2024-01-20T20:52:26.227Z,17.40
2024-01-20T20:54:56.782Z,17.47
2024-01-20T20:57:25.651Z,17.40
2024-01-20T21:00:01.134Z,17.53
2024-01-20T21:02:30.389Z,17.57
2024-01-20T21:05:03.993Z,17.63
2024-01-20T21:07:39.618Z,17.20
2024-01-20T21:10:12.683Z,16.77
2024-01-20T21:12:43.569Z,17.53
2024-01-20T21:15:29.452Z,17.90
2024-01-20T21:17:58.374Z,19.33
2024-01-20T21:20:27.452Z,18.60
2024-01-20T21:22:56.163Z,17.43
2024-01-20T21:25:30.800Z,18.20
2024-01-20T21:27:59.735Z,18.87
2024-01-20T21:30:29.659Z,19.30
2024-01-20T21:32:58.411Z,18.97
2024-01-20T21:35:27.363Z,19.83
2024-01-20T21:37:56.774Z,19.33
2024-01-20T21:40:27.709Z,18.90
2024-01-20T21:42:56.343Z,20.40
2024-01-20T21:45:24.929Z,19.63
2024-01-20T21:47:53.798Z,18.63
2024-01-20T21:50:22.751Z,18.83
2024-01-20T21:52:52.414Z,18.90
2024-01-20T21:55:21.265Z,19.50
2024-01-20T21:57:54.432Z,18.67
2024-01-20T22:00:25.367Z,18.20
2024-01-20T22:02:54.133Z,20.07
2024-01-20T22:05:24.517Z,19.33
2024-01-20T22:07:55.108Z,17.03
2024-01-20T22:10:23.709Z,16.50
2024-01-20T22:12:53.962Z,18.60
2024-01-20T22:15:23.118Z,19.10
2024-01-20T22:17:52.503Z,19.20
2024-01-20T22:20:21.316Z,19.60
2024-01-20T22:22:49.971Z,19.13
2024-01-20T22:25:18.788Z,19.07
2024-01-20T22:27:47.514Z,19.75
2024-01-20T22:30:17.735Z,17.50
2024-01-20T22:32:47.343Z,16.97
2024-01-20T22:35:15.953Z,18.92
2024-01-20T22:37:44.537Z,13.40
2024-01-20T22:40:15.956Z,12.20
2024-01-20T22:42:44.790Z,12.40
2024-01-20T22:45:13.888Z,12.50
2024-01-20T22:47:45.315Z,12.43
2024-01-20T22:50:14.357Z,11.10
2024-01-20T22:52:43.322Z,10.10
2024-01-20T22:55:12.799Z,9.80
2024-01-20T22:57:41.475Z,9.47
2024-01-20T23:00:14.422Z,9.07
2024-01-20T23:02:45.349Z,7.73
2024-01-20T23:05:14.323Z,6.47
2024-01-20T23:07:44.709Z,5.70
2024-01-20T23:10:13.559Z,4.37
2024-01-20T23:12:42.465Z,3.63
2024-01-20T23:15:11.977Z,3.03
2024-01-20T23:17:40.620Z,2.37
2024-01-20T23:20:12.012Z,3.50
2024-01-20T23:22:40.853Z,3.57
2024-01-20T23:25:10.598Z,3.80
2024-01-20T23:27:39.927Z,4.23
2024-01-20T23:30:10.108Z,4.77
2024-01-20T23:32:38.895Z,4.83
2024-01-20T23:35:10.168Z,3.60
2024-01-20T23:37:38.809Z,5.90
2024-01-20T23:40:08.103Z,6.10
2024-01-20T23:42:37.072Z,6.20
2024-01-20T23:45:06.392Z,5.53
2024-01-20T23:47:35.268Z,4.90
2024-01-20T23:50:04.110Z,5.67
2024-01-20T23:52:35.132Z,5.70
2024-01-20T23:55:04.470Z,4.57
2024-01-20T23:57:34.002Z,5.13
